createdAt,value
2023-04-06T04:15:16.938Z,18.80
2023-04-06T04:17:50.746Z,23.00
2023-04-06T04:20:23.402Z,21.20
2023-04-06T04:22:56.326Z,23.70
2023-04-06T04:25:28.886Z,18.40
2023-04-06T04:28:03.035Z,20.10
2023-04-06T04:30:36.803Z,19.90
2023-04-06T04:33:14.106Z,20.90
2023-04-06T04:35:46.742Z,22.20
2023-04-06T04:38:21.001Z,19.60
2023-04-06T04:40:53.641Z,21.20
2023-04-06T04:43:26.705Z,22.30
2023-04-06T04:46:00.258Z,19.30
2023-04-06T04:48:34.178Z,18.60
2023-04-06T04:51:08.928Z,19.90
2023-04-06T04:53:42.553Z,20.90
2023-04-06T04:56:15.364Z,20.40
2023-04-06T04:58:48.082Z,19.10
2023-04-06T05:01:20.765Z,21.70
2023-04-06T05:03:55.065Z,20.30
2023-04-06T05:06:28.127Z,22.20
2023-04-06T05:09:00.759Z,19.50
2023-04-06T05:11:33.281Z,20.20
2023-04-06T05:14:07.511Z,20.30
2023-04-06T05:16:41.934Z,19.30
2023-04-06T05:19:15.390Z,22.10
2023-04-06T05:21:48.107Z,20.80
2023-04-06T05:24:21.330Z,21.10
2023-04-06T05:26:54.267Z,21.30
2023-04-06T05:29:27.436Z,20.70
2023-04-06T05:32:03.417Z,21.50
2023-04-06T05:35:10.095Z,21.40
2023-04-06T05:37:55.957Z,18.50
2023-04-06T05:40:31.710Z,20.90
2023-04-06T05:43:04.567Z,19.70
2023-04-06T05:45:38.955Z,18.50
2023-04-06T05:48:11.967Z,18.90
2023-04-06T05:50:45.037Z,17.70
2023-04-06T05:53:17.616Z,19.20
2023-04-06T05:55:50.528Z,21.10
2023-04-06T05:58:23.146Z,20.40
2023-04-06T06:01:00.742Z,20.30
2023-04-06T06:03:33.521Z,20.80
2023-04-06T06:06:08.212Z,19.30
2023-04-06T06:08:41.777Z,20.70
2023-04-06T06:11:14.848Z,18.80
2023-04-06T06:13:51.088Z,19.00
2023-04-06T06:16:30.435Z,19.60
2023-04-06T06:19:03.163Z,18.50
2023-04-06T06:21:36.505Z,19.40
2023-04-06T06:24:10.796Z,19.40
2023-04-06T06:26:45.455Z,16.60
2023-04-06T06:29:18.402Z,17.80
2023-04-06T06:31:51.569Z,20.50
2023-04-06T06:34:24.620Z,18.40
2023-04-06T06:36:57.852Z,18.70
2023-04-06T06:39:30.821Z,17.50
2023-04-06T06:42:03.782Z,19.70
2023-04-06T06:44:39.189Z,18.50
2023-04-06T06:47:12.260Z,18.90
2023-04-06T06:49:45.144Z,19.40
2023-04-06T06:52:18.176Z,17.90
2023-04-06T06:54:51.098Z,17.40
2023-04-06T06:57:24.089Z,19.80
2023-04-06T06:59:56.897Z,15.60
2023-04-06T07:02:30.158Z,16.60
2023-04-06T07:05:10.154Z,19.10
2023-04-06T07:07:49.904Z,17.90
2023-04-06T07:10:27.604Z,19.00
2023-04-06T07:13:00.854Z,16.00
2023-04-06T07:15:34.779Z,18.30
2023-04-06T07:18:10.999Z,17.40
2023-04-06T07:20:44.020Z,19.20
2023-04-06T07:23:17.341Z,15.90
2023-04-06T07:25:52.173Z,19.00
2023-04-06T07:28:27.459Z,18.30
2023-04-06T07:31:00.373Z,16.50
2023-04-06T07:33:33.316Z,17.70
2023-04-06T07:36:07.151Z,17.20
2023-04-06T07:38:41.304Z,16.10
2023-04-06T07:41:14.118Z,16.20
2023-04-06T07:43:46.748Z,15.50
2023-04-06T07:46:19.713Z,14.70
2023-04-06T07:48:52.724Z,16.30
2023-04-06T07:51:26.739Z,13.90
2023-04-06T07:53:59.807Z,15.20
2023-04-06T07:56:33.187Z,16.40
2023-04-06T07:59:05.920Z,15.00
2023-04-06T08:01:39.928Z,13.60
2023-04-06T08:04:13.582Z,15.90
2023-04-06T08:06:46.658Z,13.90
2023-04-06T08:09:19.785Z,14.70
2023-04-06T08:11:52.524Z,15.60
2023-04-06T08:14:25.364Z,16.00
2023-04-06T08:16:58.047Z,17.10
2023-04-06T08:19:31.834Z,14.70
2023-04-06T08:22:05.133Z,13.90
2023-04-06T08:24:39.601Z,15.00
2023-04-06T08:27:15.156Z,15.60
2023-04-06T08:29:48.305Z,16.40
2023-04-06T08:32:21.100Z,15.30
2023-04-06T08:34:57.404Z,14.40
2023-04-06T08:37:35.547Z,15.50
2023-04-06T08:40:10.917Z,14.50
2023-04-06T08:42:51.993Z,14.70
2023-04-06T08:45:24.794Z,15.60
2023-04-06T08:48:02.951Z,17.20
2023-04-06T08:50:37.871Z,16.20
2023-04-06T08:53:13.462Z,13.80
2023-04-06T08:55:48.216Z,16.20
2023-04-06T08:58:37.329Z,15.90
2023-04-06T09:01:16.613Z,16.00
2023-04-06T09:03:51.653Z,16.50
2023-04-06T09:06:25.465Z,15.20
2023-04-06T09:08:59.171Z,18.00
2023-04-06T09:11:31.981Z,17.80
2023-04-06T09:14:04.732Z,16.70
2023-04-06T09:16:47.786Z,17.20
2023-04-06T09:19:21.933Z,16.30
2023-04-06T09:22:05.636Z,18.30
2023-04-06T09:24:47.478Z,18.30
2023-04-06T09:27:21.089Z,16.10
2023-04-06T09:30:05.087Z,15.00
2023-04-06T09:32:49.083Z,16.20
2023-04-06T09:35:23.274Z,17.30
2023-04-06T09:37:57.253Z,19.40
2023-04-06T09:40:30.384Z,16.40
2023-04-06T09:43:09.053Z,17.10
2023-04-06T09:45:43.078Z,16.30
2023-04-06T09:48:16.581Z,16.00
2023-04-06T09:50:51.178Z,13.90
2023-04-06T09:53:27.786Z,15.40
2023-04-06T09:56:05.218Z,17.00
2023-04-06T09:58:46.017Z,17.90
2023-04-06T10:01:24.567Z,19.00
2023-04-06T10:04:09.198Z,17.00
2023-04-06T10:06:43.589Z,20.80
2023-04-06T10:09:17.095Z,19.30
2023-04-06T10:11:51.522Z,16.50
2023-04-06T10:14:25.760Z,17.50
2023-04-06T10:17:00.528Z,15.30
2023-04-06T10:19:41.390Z,14.60
2023-04-06T10:22:20.992Z,17.40
2023-04-06T10:24:54.115Z,13.30
2023-04-06T10:27:35.043Z,17.70
2023-04-06T10:30:11.522Z,17.20
2023-04-06T10:32:45.753Z,16.60
2023-04-06T10:35:20.670Z,16.30
2023-04-06T10:37:55.912Z,18.20
2023-04-06T10:40:30.479Z,18.70
2023-04-06T10:43:15.805Z,18.10
2023-04-06T10:45:56.973Z,19.10
2023-04-06T10:48:44.073Z,19.50
2023-04-06T10:51:18.465Z,15.90
2023-04-06T10:53:52.435Z,16.40
2023-04-06T10:56:29.311Z,17.20
2023-04-06T10:59:02.378Z,17.30
2023-04-06T11:01:35.214Z,16.20
2023-04-06T11:04:14.459Z,14.30
2023-04-06T11:06:51.948Z,13.70
2023-04-06T11:09:32.639Z,13.90
2023-04-06T11:12:09.079Z,15.20
2023-04-06T11:14:42.805Z,15.70
2023-04-06T11:17:19.216Z,14.70
2023-04-06T11:20:12.287Z,17.60
2023-04-06T11:22:54.366Z,14.80
2023-04-06T11:25:28.921Z,16.10
2023-04-06T11:28:06.573Z,15.70
2023-04-06T11:30:43.325Z,16.00
2023-04-06T11:33:25.228Z,15.70
2023-04-06T11:36:01.171Z,15.80
2023-04-06T11:38:34.217Z,16.00
2023-04-06T11:41:08.604Z,15.90
2023-04-06T11:43:48.784Z,17.90
2023-04-06T11:46:23.250Z,16.00
2023-04-06T11:49:00.400Z,16.80
2023-04-06T11:51:53.525Z,15.40
2023-04-06T11:54:56.401Z,14.80
2023-04-06T11:57:29.187Z,13.40
2023-04-06T12:00:01.898Z,13.80
2023-04-06T12:02:34.833Z,14.60
2023-04-06T12:05:10.128Z,12.60
2023-04-06T12:07:43.895Z,12.00
2023-04-06T12:10:17.229Z,13.40
2023-04-06T12:12:49.780Z,14.50
2023-04-06T12:15:22.788Z,11.40
2023-04-06T12:17:55.411Z,12.40
2023-04-06T12:20:28.795Z,12.40
2023-04-06T12:23:01.424Z,13.20
2023-04-06T12:25:34.430Z,10.90
2023-04-06T12:28:07.142Z,12.10
2023-04-06T12:30:42.652Z,12.80
2023-04-06T12:33:15.477Z,14.40
2023-04-06T12:35:48.324Z,12.10
2023-04-06T12:38:22.295Z,11.30
2023-04-06T12:40:55.128Z,11.50
2023-04-06T12:43:27.770Z,11.30
2023-04-06T12:46:01.141Z,13.50
2023-04-06T12:48:34.569Z,11.70
2023-04-06T12:51:09.734Z,11.80
2023-04-06T12:53:43.480Z,11.20
2023-04-06T12:56:18.574Z,9.70
2023-04-06T12:58:52.965Z,11.10
2023-04-06T13:01:26.974Z,11.00
2023-04-06T13:04:00.543Z,10.10
2023-04-06T13:06:33.493Z,10.30
2023-04-06T13:09:06.904Z,10.40
2023-04-06T13:11:42.639Z,10.20
2023-04-06T13:14:15.363Z,10.20
2023-04-06T13:16:48.562Z,10.50
2023-04-06T13:19:21.326Z,9.80
2023-04-06T13:21:54.745Z,9.60
2023-04-06T13:24:31.718Z,8.00
2023-04-06T13:27:07.093Z,9.40
2023-04-06T13:29:41.137Z,9.30
2023-04-06T13:32:14.377Z,10.00
2023-04-06T13:34:49.273Z,9.20
2023-04-06T13:37:22.381Z,7.70
2023-04-06T13:39:54.907Z,7.70
2023-04-06T13:42:29.199Z,9.10
2023-04-06T13:45:02.094Z,10.20
2023-04-06T13:47:36.191Z,7.40
2023-04-06T13:50:10.627Z,7.80
2023-04-06T13:52:44.970Z,8.90
2023-04-06T13:55:22.818Z,6.80
2023-04-06T13:57:59.487Z,9.60
2023-04-06T14:00:40.454Z,6.80
2023-04-06T14:03:18.614Z,8.70
2023-04-06T14:06:09.341Z,8.90
2023-04-06T14:08:55.989Z,7.70
2023-04-06T14:12:27.285Z,7.20
2023-04-06T14:15:13.824Z,7.70
2023-04-06T14:17:47.874Z,9.40
2023-04-06T14:20:22.006Z,6.90
2023-04-06T14:22:56.902Z,7.00
2023-04-06T14:25:29.876Z,6.20
2023-04-06T14:28:02.688Z,6.20
2023-04-06T14:30:36.113Z,5.50
2023-04-06T14:33:09.570Z,7.10
2023-04-06T14:35:44.414Z,6.10
2023-04-06T14:38:21.999Z,5.90
2023-04-06T14:41:00.603Z,5.50
2023-04-06T14:43:34.106Z,4.90
2023-04-06T14:46:07.032Z,6.00
2023-04-06T14:48:41.591Z,6.10
2023-04-06T14:51:14.377Z,7.40
2023-04-06T14:53:47.518Z,6.00
2023-04-06T14:56:25.074Z,5.60
2023-04-06T14:58:59.861Z,5.70
2023-04-06T15:01:36.433Z,6.30
2023-04-06T15:04:10.385Z,6.60
2023-04-06T15:06:55.421Z,7.10
2023-04-06T15:09:28.922Z,9.20
2023-04-06T15:12:02.653Z,7.40
2023-04-06T15:14:37.209Z,6.10
2023-04-06T15:17:11.267Z,5.80
2023-04-06T15:20:03.533Z,5.90
2023-04-06T15:22:37.791Z,5.70
2023-04-06T15:25:12.846Z,6.70
2023-04-06T15:27:46.305Z,6.40
2023-04-06T15:30:19.277Z,5.80
2023-04-06T15:32:59.676Z,6.30
2023-04-06T15:35:40.863Z,6.40
2023-04-06T15:38:44.069Z,6.10
2023-04-06T15:41:17.578Z,5.90
2023-04-06T15:43:50.411Z,7.70
2023-04-06T15:46:41.624Z,10.90
2023-04-06T15:49:23.419Z,6.60
2023-04-06T15:51:56.525Z,7.40
2023-04-06T15:54:37.386Z,8.90
2023-04-06T15:57:14.987Z,7.00
2023-04-06T15:59:56.412Z,7.70
2023-04-06T16:02:31.774Z,6.30
2023-04-06T16:05:05.626Z,8.80
2023-04-06T16:07:38.729Z,7.70
2023-04-06T16:10:14.045Z,8.70
2023-04-06T16:12:47.185Z,8.00
2023-04-06T16:15:22.194Z,9.40
2023-04-06T16:17:55.198Z,7.10
2023-04-06T16:20:34.783Z,8.20
2023-04-06T16:23:07.436Z,9.90
2023-04-06T16:25:44.351Z,9.10
2023-04-06T16:28:18.999Z,8.10
2023-04-06T16:30:54.017Z,10.80
2023-04-06T16:33:26.627Z,9.20
2023-04-06T16:36:00.399Z,8.60
2023-04-06T16:38:35.915Z,9.00
2023-04-06T16:41:09.373Z,8.30
2023-04-06T16:43:43.995Z,11.70
2023-04-06T16:46:17.544Z,9.30
2023-04-06T16:48:50.371Z,11.40
2023-04-06T16:51:52.769Z,8.70
2023-04-06T16:54:54.555Z,10.00
2023-04-06T16:57:30.205Z,9.30
2023-04-06T17:00:30.690Z,10.10
2023-04-06T17:03:18.411Z,10.10
2023-04-06T17:05:54.827Z,10.10
2023-04-06T17:09:12.730Z,9.00
2023-04-06T17:11:47.238Z,9.50
2023-04-06T17:14:23.437Z,8.50
2023-04-06T17:17:01.825Z,8.50
2023-04-06T17:19:40.978Z,7.80
2023-04-06T17:22:22.779Z,9.20
2023-04-06T17:24:55.727Z,10.90
2023-04-06T17:27:34.763Z,9.90
2023-04-06T17:30:14.159Z,6.60
2023-04-06T17:32:48.091Z,7.50
2023-04-06T17:35:21.649Z,7.60
2023-04-06T17:37:54.624Z,7.20
2023-04-06T17:40:28.652Z,8.60
2023-04-06T17:43:01.716Z,7.20
2023-04-06T17:45:40.982Z,8.80
2023-04-06T17:48:16.734Z,8.10
2023-04-06T17:50:52.117Z,9.10
2023-04-06T17:53:30.841Z,8.90
2023-04-06T17:56:05.857Z,8.70
2023-04-06T17:58:41.405Z,7.80
2023-04-06T18:01:14.969Z,7.50
2023-04-06T18:03:52.911Z,9.30
2023-04-06T18:06:28.039Z,8.30
2023-04-06T18:09:01.821Z,8.40
2023-04-06T18:11:35.242Z,9.20
2023-04-06T18:14:16.187Z,9.20
2023-04-06T18:16:53.138Z,10.50
2023-04-06T18:19:25.858Z,9.90
2023-04-06T18:21:59.468Z,8.70
2023-04-06T18:24:43.434Z,8.90
2023-04-06T18:27:25.627Z,9.20
2023-04-06T18:29:59.953Z,9.30
2023-04-06T18:32:38.555Z,10.50
2023-04-06T18:35:14.524Z,10.80
2023-04-06T18:37:48.331Z,9.90
2023-04-06T18:40:37.296Z,13.10
2023-04-06T18:43:12.842Z,10.30
2023-04-06T18:45:48.524Z,10.60
2023-04-06T18:48:21.787Z,10.00
2023-04-06T18:51:06.884Z,10.50
2023-04-06T18:53:40.178Z,10.60
2023-04-06T18:56:21.543Z,12.00
2023-04-06T18:58:55.722Z,12.50
2023-04-06T19:01:43.852Z,11.80
2023-04-06T19:04:21.817Z,11.70
2023-04-06T19:06:56.664Z,12.90
2023-04-06T19:09:32.911Z,10.50
2023-04-06T19:12:50.712Z,9.90
2023-04-06T19:15:30.363Z,10.70
2023-04-06T19:18:04.202Z,9.90
2023-04-06T19:20:59.482Z,10.10
2023-04-06T19:23:35.612Z,9.60
2023-04-06T19:26:14.279Z,9.20
2023-04-06T19:28:59.321Z,10.20
2023-04-06T19:31:52.427Z,8.80
2023-04-06T19:39:03.104Z,8.50
2023-04-06T19:46:59.499Z,8.30
2023-04-06T19:58:06.881Z,9.20
2023-04-06T20:05:02.607Z,8.00
2023-04-06T20:11:45.383Z,7.90
2023-04-06T20:15:00.477Z,9.30
2023-04-06T20:18:31.645Z,8.50
2023-04-06T20:21:52.501Z,8.10
2023-04-06T20:29:09.736Z,7.40
2023-04-06T20:40:28.566Z,7.40
2023-04-06T20:47:53.113Z,6.40
2023-04-06T20:51:49.787Z,5.80
2023-04-06T20:55:09.214Z,5.60
2023-04-06T20:58:15.888Z,8.70
2023-04-06T21:05:33.550Z,5.10
2023-04-06T21:12:29.943Z,6.00
2023-04-06T21:15:49.849Z,7.70
2023-04-06T21:18:26.114Z,6.80
2023-04-06T21:21:02.023Z,7.10
2023-04-06T21:24:25.299Z,10.20
2023-04-06T21:27:29.092Z,6.50
2023-04-06T21:30:42.306Z,6.50
2023-04-06T21:34:02.356Z,5.90
2023-04-06T21:37:05.533Z,6.10
2023-04-06T21:44:07.167Z,5.80
2023-04-06T21:47:42.795Z,7.20
2023-04-06T21:55:11.680Z,7.00
2023-04-06T21:58:32.925Z,7.20
2023-04-06T22:01:25.654Z,5.90
2023-04-06T22:05:44.796Z,7.10
2023-04-06T22:09:42.770Z,5.60
2023-04-06T22:12:59.284Z,5.50
2023-04-06T22:17:03.753Z,7.30
2023-04-06T22:21:06.152Z,10.90
2023-04-06T22:24:44.541Z,11.30
2023-04-06T22:27:55.170Z,11.60
2023-04-06T22:31:14.919Z,11.20
2023-04-06T22:34:40.522Z,10.70
2023-04-06T22:38:04.616Z,10.80
2023-04-06T22:41:32.329Z,10.10
2023-04-06T22:44:43.108Z,11.40
2023-04-06T22:47:54.979Z,9.70
2023-04-06T22:50:50.103Z,10.30
2023-04-06T22:54:33.827Z,11.30
2023-04-06T22:57:57.176Z,10.10
2023-04-06T23:01:16.827Z,11.00
2023-04-06T23:04:36.201Z,11.30
2023-04-06T23:07:55.454Z,11.00
2023-04-06T23:11:25.164Z,11.70
2023-04-06T23:14:32.773Z,12.30
2023-04-06T23:17:59.305Z,13.30
2023-04-06T23:25:02.459Z,12.30
2023-04-06T23:28:56.281Z,11.10
2023-04-06T23:32:34.718Z,11.80
2023-04-06T23:35:47.037Z,15.60
2023-04-06T23:39:14.940Z,11.60
2023-04-06T23:42:13.505Z,11.80
2023-04-06T23:45:35.054Z,12.60
2023-04-06T23:48:43.751Z,11.40
2023-04-06T23:52:00.353Z,11.80
2023-04-06T23:58:57.041Z,11.60
